sensor_id;sensor_type;location;lat;lon;timestamp;temperature;humidity
66271;DHT22;53063;39.614;8.814;2023-07-20T00:01:23;26.70;99.30
66271;DHT22;53063;39.614;8.814;2023-07-20T00:03:49;26.70;99.10
66271;DHT22;53063;39.614;8.814;2023-07-20T00:06:25;26.70;99.20
66271;DHT22;53063;39.614;8.814;2023-07-20T00:08:56;26.60;99.70
66271;DHT22;53063;39.614;8.814;2023-07-20T00:11:26;26.50;99.20
66271;DHT22;53063;39.614;8.814;2023-07-20T00:13:52;26.50;98.80
66271;DHT22;53063;39.614;8.814;2023-07-20T00:16:18;26.50;99.90
66271;DHT22;53063;39.614;8.814;2023-07-20T00:18:44;26.50;99.90
66271;DHT22;53063;39.614;8.814;2023-07-20T00:21:10;26.50;99.90
66271;DHT22;53063;39.614;8.814;2023-07-20T00:23:37;26.40;99.90
66271;DHT22;53063;39.614;8.814;2023-07-20T00:26:03;26.30;99.90
66271;DHT22;53063;39.614;8.814;2023-07-20T00:28:29;26.20;99.90
66271;DHT22;53063;39.614;8.814;2023-07-20T00:30:55;26.10;99.90
66271;DHT22;53063;39.614;8.814;2023-07-20T00:33:21;26.10;99.90
66271;DHT22;53063;39.614;8.814;2023-07-20T00:35:47;26.00;99.90
66271;DHT22;53063;39.614;8.814;2023-07-20T00:38:15;25.90;99.90
66271;DHT22;53063;39.614;8.814;2023-07-20T00:40:41;25.80;99.90
66271;DHT22;53063;39.614;8.814;2023-07-20T00:43:08;25.80;99.90
66271;DHT22;53063;39.614;8.814;2023-07-20T00:45:34;25.70;99.90
66271;DHT22;53063;39.614;8.814;2023-07-20T00:48:03;25.70;99.90
66271;DHT22;53063;39.614;8.814;2023-07-20T00:50:31;25.70;99.90
66271;DHT22;53063;39.614;8.814;2023-07-20T00:52:58;25.70;99.90
66271;DHT22;53063;39.614;8.814;2023-07-20T00:55:24;25.60;99.90
66271;DHT22;53063;39.614;8.814;2023-07-20T00:57:52;25.60;99.90
66271;DHT22;53063;39.614;8.814;2023-07-20T01:00:18;25.60;99.90
66271;DHT22;53063;39.614;8.814;2023-07-20T01:02:45;25.60;99.90
66271;DHT22;53063;39.614;8.814;2023-07-20T01:05:11;25.50;99.90
66271;DHT22;53063;39.614;8.814;2023-07-20T01:07:58;25.40;99.90
66271;DHT22;53063;39.614;8.814;2023-07-20T01:10:29;25.20;99.90
66271;DHT22;53063;39.614;8.814;2023-07-20T01:12:57;25.10;99.90
66271;DHT22;53063;39.614;8.814;2023-07-20T01:15:25;24.90;98.90
66271;DHT22;53063;39.614;8.814;2023-07-20T01:17:51;24.90;97.20
66271;DHT22;53063;39.614;8.814;2023-07-20T01:20:19;24.80;95.80
66271;DHT22;53063;39.614;8.814;2023-07-20T01:29:10;24.60;94.50
66271;DHT22;53063;39.614;8.814;2023-07-20T01:31:38;24.60;95.10
66271;DHT22;53063;39.614;8.814;2023-07-20T01:34:09;24.50;93.80
66271;DHT22;53063;39.614;8.814;2023-07-20T01:36:37;24.50;93.10
66271;DHT22;53063;39.614;8.814;2023-07-20T01:39:04;24.40;92.60
66271;DHT22;53063;39.614;8.814;2023-07-20T01:41:33;24.40;91.60
66271;DHT22;53063;39.614;8.814;2023-07-20T01:43:58;24.40;91.30
66271;DHT22;53063;39.614;8.814;2023-07-20T01:46:27;24.50;91.90
66271;DHT22;53063;39.614;8.814;2023-07-20T01:48:54;24.50;92.00
66271;DHT22;53063;39.614;8.814;2023-07-20T01:51:20;24.40;92.50
66271;DHT22;53063;39.614;8.814;2023-07-20T01:53:48;24.30;93.40
66271;DHT22;53063;39.614;8.814;2023-07-20T01:56:14;24.20;94.30
66271;DHT22;53063;39.614;8.814;2023-07-20T01:58:40;24.20;93.80
66271;DHT22;53063;39.614;8.814;2023-07-20T02:01:06;24.20;93.30
66271;DHT22;53063;39.614;8.814;2023-07-20T02:03:32;24.20;94.00
66271;DHT22;53063;39.614;8.814;2023-07-20T02:05:58;24.30;94.80
66271;DHT22;53063;39.614;8.814;2023-07-20T02:08:26;24.30;95.00
66271;DHT22;53063;39.614;8.814;2023-07-20T02:10:55;24.30;95.90
66271;DHT22;53063;39.614;8.814;2023-07-20T02:13:21;24.10;97.10
66271;DHT22;53063;39.614;8.814;2023-07-20T02:15:47;24.00;98.00
66271;DHT22;53063;39.614;8.814;2023-07-20T02:18:15;23.90;96.10
66271;DHT22;53063;39.614;8.814;2023-07-20T02:20:41;23.60;89.80
66271;DHT22;53063;39.614;8.814;2023-07-20T02:23:08;23.50;87.40
66271;DHT22;53063;39.614;8.814;2023-07-20T02:25:34;23.70;88.80
66271;DHT22;53063;39.614;8.814;2023-07-20T02:27:59;23.90;93.10
66271;DHT22;53063;39.614;8.814;2023-07-20T02:30:26;24.30;99.50
66271;DHT22;53063;39.614;8.814;2023-07-20T02:32:53;24.40;99.90
66271;DHT22;53063;39.614;8.814;2023-07-20T02:35:19;23.90;99.90
66271;DHT22;53063;39.614;8.814;2023-07-20T02:37:45;23.90;99.90
66271;DHT22;53063;39.614;8.814;2023-07-20T02:40:11;24.20;99.90
66271;DHT22;53063;39.614;8.814;2023-07-20T02:42:37;24.50;99.90
66271;DHT22;53063;39.614;8.814;2023-07-20T02:45:03;24.60;99.90
66271;DHT22;53063;39.614;8.814;2023-07-20T02:47:30;24.70;99.90
66271;DHT22;53063;39.614;8.814;2023-07-20T02:49:56;24.70;99.90
66271;DHT22;53063;39.614;8.814;2023-07-20T02:52:22;24.70;99.90
66271;DHT22;53063;39.614;8.814;2023-07-20T02:54:49;24.70;99.90
66271;DHT22;53063;39.614;8.814;2023-07-20T02:57:15;24.80;99.90
66271;DHT22;53063;39.614;8.814;2023-07-20T02:59:41;24.80;99.90
66271;DHT22;53063;39.614;8.814;2023-07-20T03:02:07;24.80;99.90
66271;DHT22;53063;39.614;8.814;2023-07-20T03:04:36;24.80;99.90
66271;DHT22;53063;39.614;8.814;2023-07-20T03:07:05;24.80;99.90
66271;DHT22;53063;39.614;8.814;2023-07-20T03:09:31;24.90;99.90
66271;DHT22;53063;39.614;8.814;2023-07-20T03:11:57;24.90;99.90
66271;DHT22;53063;39.614;8.814;2023-07-20T03:14:23;25.00;99.90
66271;DHT22;53063;39.614;8.814;2023-07-20T03:16:50;25.00;99.90
66271;DHT22;53063;39.614;8.814;2023-07-20T03:19:16;25.00;99.90
66271;DHT22;53063;39.614;8.814;2023-07-20T03:21:42;25.10;99.90
66271;DHT22;53063;39.614;8.814;2023-07-20T03:24:09;25.10;99.90
66271;DHT22;53063;39.614;8.814;2023-07-20T03:26:36;25.10;99.90
66271;DHT22;53063;39.614;8.814;2023-07-20T03:29:04;25.10;99.90
66271;DHT22;53063;39.614;8.814;2023-07-20T03:31:31;25.10;99.90
66271;DHT22;53063;39.614;8.814;2023-07-20T03:33:57;25.20;99.90
66271;DHT22;53063;39.614;8.814;2023-07-20T03:36:23;25.30;99.90
66271;DHT22;53063;39.614;8.814;2023-07-20T03:38:49;25.30;99.90
66271;DHT22;53063;39.614;8.814;2023-07-20T03:41:15;25.30;99.90
66271;DHT22;53063;39.614;8.814;2023-07-20T03:43:42;25.30;99.90
66271;DHT22;53063;39.614;8.814;2023-07-20T03:46:08;25.30;99.90
66271;DHT22;53063;39.614;8.814;2023-07-20T03:48:34;25.40;99.90
66271;DHT22;53063;39.614;8.814;2023-07-20T03:51:00;25.40;99.90
66271;DHT22;53063;39.614;8.814;2023-07-20T03:53:26;25.40;99.90
66271;DHT22;53063;39.614;8.814;2023-07-20T03:55:53;25.40;99.90
66271;DHT22;53063;39.614;8.814;2023-07-20T03:58:20;25.50;99.90
66271;DHT22;53063;39.614;8.814;2023-07-20T04:00:48;25.50;99.90
66271;DHT22;53063;39.614;8.814;2023-07-20T04:03:17;25.50;99.90
66271;DHT22;53063;39.614;8.814;2023-07-20T04:05:43;25.60;99.90
66271;DHT22;53063;39.614;8.814;2023-07-20T04:08:10;25.60;99.90
66271;DHT22;53063;39.614;8.814;2023-07-20T04:10:37;25.60;99.90
66271;DHT22;53063;39.614;8.814;2023-07-20T04:13:04;25.60;99.90
66271;DHT22;53063;39.614;8.814;2023-07-20T04:15:30;25.70;99.90
66271;DHT22;53063;39.614;8.814;2023-07-20T04:17:56;25.60;99.90
66271;DHT22;53063;39.614;8.814;2023-07-20T04:20:23;25.60;99.90
66271;DHT22;53063;39.614;8.814;2023-07-20T04:22:49;25.70;99.90
66271;DHT22;53063;39.614;8.814;2023-07-20T04:25:17;25.70;99.90
66271;DHT22;53063;39.614;8.814;2023-07-20T04:27:43;25.70;99.90
66271;DHT22;53063;39.614;8.814;2023-07-20T04:30:10;25.70;99.90
66271;DHT22;53063;39.614;8.814;2023-07-20T04:32:38;25.70;99.90
66271;DHT22;53063;39.614;8.814;2023-07-20T04:35:07;25.70;99.90
66271;DHT22;53063;39.614;8.814;2023-07-20T04:37:36;25.80;99.90
66271;DHT22;53063;39.614;8.814;2023-07-20T04:40:03;25.80;99.90
66271;DHT22;53063;39.614;8.814;2023-07-20T04:42:29;25.80;99.90
66271;DHT22;53063;39.614;8.814;2023-07-20T04:44:55;25.80;99.90
66271;DHT22;53063;39.614;8.814;2023-07-20T04:47:21;25.90;99.90
66271;DHT22;53063;39.614;8.814;2023-07-20T04:49:49;25.90;99.90
66271;DHT22;53063;39.614;8.814;2023-07-20T04:52:16;25.90;99.90
66271;DHT22;53063;39.614;8.814;2023-07-20T04:54:42;26.00;99.90
66271;DHT22;53063;39.614;8.814;2023-07-20T04:57:11;25.90;99.90
66271;DHT22;53063;39.614;8.814;2023-07-20T04:59:40;26.00;99.90
66271;DHT22;53063;39.614;8.814;2023-07-20T05:02:06;25.90;99.90
66271;DHT22;53063;39.614;8.814;2023-07-20T05:04:32;26.00;99.90
66271;DHT22;53063;39.614;8.814;2023-07-20T05:06:58;25.90;99.90
66271;DHT22;53063;39.614;8.814;2023-07-20T05:09:24;26.00;99.90
66271;DHT22;53063;39.614;8.814;2023-07-20T05:11:50;26.00;99.90
66271;DHT22;53063;39.614;8.814;2023-07-20T05:14:16;26.00;99.90
66271;DHT22;53063;39.614;8.814;2023-07-20T05:16:43;26.00;99.90
66271;DHT22;53063;39.614;8.814;2023-07-20T05:19:09;26.10;99.90
66271;DHT22;53063;39.614;8.814;2023-07-20T05:21:35;26.20;99.90
66271;DHT22;53063;39.614;8.814;2023-07-20T05:24:02;26.30;99.90
66271;DHT22;53063;39.614;8.814;2023-07-20T05:26:28;26.30;99.90
66271;DHT22;53063;39.614;8.814;2023-07-20T05:28:54;26.30;99.90
66271;DHT22;53063;39.614;8.814;2023-07-20T05:31:20;26.40;99.90
66271;DHT22;53063;39.614;8.814;2023-07-20T05:33:46;26.50;99.90
66271;DHT22;53063;39.614;8.814;2023-07-20T05:36:11;26.60;99.90
66271;DHT22;53063;39.614;8.814;2023-07-20T05:38:37;26.50;99.90
66271;DHT22;53063;39.614;8.814;2023-07-20T05:41:04;26.50;99.90
66271;DHT22;53063;39.614;8.814;2023-07-20T05:43:30;26.50;99.90
66271;DHT22;53063;39.614;8.814;2023-07-20T05:45:56;26.50;99.90
66271;DHT22;53063;39.614;8.814;2023-07-20T05:48:23;26.60;99.90
66271;DHT22;53063;39.614;8.814;2023-07-20T05:50:49;26.60;99.90
66271;DHT22;53063;39.614;8.814;2023-07-20T05:53:16;26.70;99.90
66271;DHT22;53063;39.614;8.814;2023-07-20T05:55:41;26.60;99.90
66271;DHT22;53063;39.614;8.814;2023-07-20T05:58:07;26.60;99.90
66271;DHT22;53063;39.614;8.814;2023-07-20T06:00:33;26.70;99.90
66271;DHT22;53063;39.614;8.814;2023-07-20T06:02:59;26.70;99.90
66271;DHT22;53063;39.614;8.814;2023-07-20T06:05:25;26.80;99.90
66271;DHT22;53063;39.614;8.814;2023-07-20T06:07:51;27.00;99.90
66271;DHT22;53063;39.614;8.814;2023-07-20T06:10:18;27.10;99.90
66271;DHT22;53063;39.614;8.814;2023-07-20T06:12:44;27.30;99.90
66271;DHT22;53063;39.614;8.814;2023-07-20T06:15:31;28.00;99.90
66271;DHT22;53063;39.614;8.814;2023-07-20T06:17:57;28.20;94.20
66271;DHT22;53063;39.614;8.814;2023-07-20T06:20:24;27.80;97.00
66271;DHT22;53063;39.614;8.814;2023-07-20T06:22:50;28.00;95.20
66271;DHT22;53063;39.614;8.814;2023-07-20T06:25:16;27.70;95.90
66271;DHT22;53063;39.614;8.814;2023-07-20T06:27:42;27.60;97.30
66271;DHT22;53063;39.614;8.814;2023-07-20T06:30:09;27.60;97.60
66271;DHT22;53063;39.614;8.814;2023-07-20T06:32:35;27.80;97.20
66271;DHT22;53063;39.614;8.814;2023-07-20T06:35:01;27.80;95.20
66271;DHT22;53063;39.614;8.814;2023-07-20T06:37:27;27.90;94.70
66271;DHT22;53063;39.614;8.814;2023-07-20T06:39:53;28.00;92.40
66271;DHT22;53063;39.614;8.814;2023-07-20T06:42:19;28.20;91.20
66271;DHT22;53063;39.614;8.814;2023-07-20T06:44:45;28.30;89.00
66271;DHT22;53063;39.614;8.814;2023-07-20T06:47:11;28.20;87.90
66271;DHT22;53063;39.614;8.814;2023-07-20T06:49:38;28.30;84.50
66271;DHT22;53063;39.614;8.814;2023-07-20T06:52:04;28.80;83.70
66271;DHT22;53063;39.614;8.814;2023-07-20T06:54:30;29.00;80.20
66271;DHT22;53063;39.614;8.814;2023-07-20T06:56:56;29.20;77.10
66271;DHT22;53063;39.614;8.814;2023-07-20T06:59:22;29.30;73.00
66271;DHT22;53063;39.614;8.814;2023-07-20T07:01:48;29.40;71.50
66271;DHT22;53063;39.614;8.814;2023-07-20T07:04:14;29.50;69.70
66271;DHT22;53063;39.614;8.814;2023-07-20T07:06:40;29.60;69.60
66271;DHT22;53063;39.614;8.814;2023-07-20T07:09:06;29.90;69.30
66271;DHT22;53063;39.614;8.814;2023-07-20T07:11:33;30.00;67.60
66271;DHT22;53063;39.614;8.814;2023-07-20T07:14:00;30.20;67.80
66271;DHT22;53063;39.614;8.814;2023-07-20T07:16:26;30.10;67.60
66271;DHT22;53063;39.614;8.814;2023-07-20T07:18:52;30.20;64.70
66271;DHT22;53063;39.614;8.814;2023-07-20T07:21:18;30.00;66.30
66271;DHT22;53063;39.614;8.814;2023-07-20T07:23:44;30.20;66.10
66271;DHT22;53063;39.614;8.814;2023-07-20T07:26:11;30.20;68.30
66271;DHT22;53063;39.614;8.814;2023-07-20T07:28:37;30.20;68.40
66271;DHT22;53063;39.614;8.814;2023-07-20T07:31:07;30.30;67.30
66271;DHT22;53063;39.614;8.814;2023-07-20T07:33:33;30.60;66.90
66271;DHT22;53063;39.614;8.814;2023-07-20T07:36:00;30.50;67.10
66271;DHT22;53063;39.614;8.814;2023-07-20T07:38:26;30.80;66.80
66271;DHT22;53063;39.614;8.814;2023-07-20T07:40:52;30.90;65.40
66271;DHT22;53063;39.614;8.814;2023-07-20T07:43:18;30.90;66.30
66271;DHT22;53063;39.614;8.814;2023-07-20T07:45:44;31.10;64.40
66271;DHT22;53063;39.614;8.814;2023-07-20T07:48:10;31.10;65.30
66271;DHT22;53063;39.614;8.814;2023-07-20T07:50:39;31.10;64.10
66271;DHT22;53063;39.614;8.814;2023-07-20T07:53:07;31.10;64.60
66271;DHT22;53063;39.614;8.814;2023-07-20T07:55:33;31.20;64.90
66271;DHT22;53063;39.614;8.814;2023-07-20T07:57:59;31.60;64.20
66271;DHT22;53063;39.614;8.814;2023-07-20T08:00:26;31.50;65.40
66271;DHT22;53063;39.614;8.814;2023-07-20T08:02:52;31.40;64.00
66271;DHT22;53063;39.614;8.814;2023-07-20T08:05:18;31.60;64.80
66271;DHT22;53063;39.614;8.814;2023-07-20T08:07:44;31.50;65.00
66271;DHT22;53063;39.614;8.814;2023-07-20T08:10:11;31.70;65.60
66271;DHT22;53063;39.614;8.814;2023-07-20T08:12:37;31.90;64.90
66271;DHT22;53063;39.614;8.814;2023-07-20T08:15:04;32.10;63.00
66271;DHT22;53063;39.614;8.814;2023-07-20T08:17:30;32.00;63.30
66271;DHT22;53063;39.614;8.814;2023-07-20T08:19:56;32.20;61.70
66271;DHT22;53063;39.614;8.814;2023-07-20T08:22:22;32.50;61.20
66271;DHT22;53063;39.614;8.814;2023-07-20T08:24:47;32.30;59.80
66271;DHT22;53063;39.614;8.814;2023-07-20T08:27:13;32.50;59.50
66271;DHT22;53063;39.614;8.814;2023-07-20T08:29:39;32.50;58.50
66271;DHT22;53063;39.614;8.814;2023-07-20T08:32:06;32.50;59.00
66271;DHT22;53063;39.614;8.814;2023-07-20T08:34:32;32.40;59.80
66271;DHT22;53063;39.614;8.814;2023-07-20T08:36:58;32.50;60.80
66271;DHT22;53063;39.614;8.814;2023-07-20T08:39:24;32.90;60.10
66271;DHT22;53063;39.614;8.814;2023-07-20T08:41:51;32.90;59.00
66271;DHT22;53063;39.614;8.814;2023-07-20T08:44:20;33.20;59.90
66271;DHT22;53063;39.614;8.814;2023-07-20T08:46:47;33.10;60.90
66271;DHT22;53063;39.614;8.814;2023-07-20T08:49:16;33.30;58.50
66271;DHT22;53063;39.614;8.814;2023-07-20T08:51:45;33.30;58.80
66271;DHT22;53063;39.614;8.814;2023-07-20T08:54:12;33.50;54.80
66271;DHT22;53063;39.614;8.814;2023-07-20T08:56:40;33.60;55.20
66271;DHT22;53063;39.614;8.814;2023-07-20T08:59:08;33.80;54.80
66271;DHT22;53063;39.614;8.814;2023-07-20T09:01:35;34.00;52.10
66271;DHT22;53063;39.614;8.814;2023-07-20T09:04:02;34.20;49.10
66271;DHT22;53063;39.614;8.814;2023-07-20T09:06:28;33.90;49.70
66271;DHT22;53063;39.614;8.814;2023-07-20T09:08:55;34.10;46.80
66271;DHT22;53063;39.614;8.814;2023-07-20T09:11:21;34.50;49.20
66271;DHT22;53063;39.614;8.814;2023-07-20T09:13:47;34.80;47.30
66271;DHT22;53063;39.614;8.814;2023-07-20T09:16:14;35.00;47.60
66271;DHT22;53063;39.614;8.814;2023-07-20T09:18:42;35.20;47.30
66271;DHT22;53063;39.614;8.814;2023-07-20T09:21:09;35.50;47.40
66271;DHT22;53063;39.614;8.814;2023-07-20T09:23:37;35.10;46.90
66271;DHT22;53063;39.614;8.814;2023-07-20T09:26:11;35.50;46.90
66271;DHT22;53063;39.614;8.814;2023-07-20T09:28:50;35.60;45.70
66271;DHT22;53063;39.614;8.814;2023-07-20T09:31:18;36.10;45.80
66271;DHT22;53063;39.614;8.814;2023-07-20T09:33:49;36.00;44.50
66271;DHT22;53063;39.614;8.814;2023-07-20T09:36:15;36.00;43.30
66271;DHT22;53063;39.614;8.814;2023-07-20T09:38:44;35.70;44.20
66271;DHT22;53063;39.614;8.814;2023-07-20T09:41:14;35.80;42.40
66271;DHT22;53063;39.614;8.814;2023-07-20T09:43:45;36.30;45.50
66271;DHT22;53063;39.614;8.814;2023-07-20T09:46:11;36.20;45.90
66271;DHT22;53063;39.614;8.814;2023-07-20T09:48:37;36.40;42.50
66271;DHT22;53063;39.614;8.814;2023-07-20T09:51:05;36.60;42.50
66271;DHT22;53063;39.614;8.814;2023-07-20T09:53:33;36.60;41.50
66271;DHT22;53063;39.614;8.814;2023-07-20T09:56:00;36.80;40.80
66271;DHT22;53063;39.614;8.814;2023-07-20T09:58:26;36.90;41.70
66271;DHT22;53063;39.614;8.814;2023-07-20T10:00:55;36.80;40.00
66271;DHT22;53063;39.614;8.814;2023-07-20T10:03:28;36.70;42.50
66271;DHT22;53063;39.614;8.814;2023-07-20T10:06:05;37.10;41.10
66271;DHT22;53063;39.614;8.814;2023-07-20T10:08:33;37.20;39.50
66271;DHT22;53063;39.614;8.814;2023-07-20T10:11:02;37.30;38.60
66271;DHT22;53063;39.614;8.814;2023-07-20T10:13:29;37.30;40.80
66271;DHT22;53063;39.614;8.814;2023-07-20T10:16:07;37.40;38.70
66271;DHT22;53063;39.614;8.814;2023-07-20T10:18:49;37.60;40.40
66271;DHT22;53063;39.614;8.814;2023-07-20T10:21:17;37.70;40.10
66271;DHT22;53063;39.614;8.814;2023-07-20T10:23:45;37.40;39.50
66271;DHT22;53063;39.614;8.814;2023-07-20T10:26:11;37.50;40.40
66271;DHT22;53063;39.614;8.814;2023-07-20T10:28:39;37.70;38.70
66271;DHT22;53063;39.614;8.814;2023-07-20T10:31:08;37.80;39.70
66271;DHT22;53063;39.614;8.814;2023-07-20T10:33:36;37.80;39.50
66271;DHT22;53063;39.614;8.814;2023-07-20T10:36:04;37.70;39.60
66271;DHT22;53063;39.614;8.814;2023-07-20T10:38:40;38.10;38.30
66271;DHT22;53063;39.614;8.814;2023-07-20T10:41:21;38.00;37.80
66271;DHT22;53063;39.614;8.814;2023-07-20T10:43:48;38.30;35.80
66271;DHT22;53063;39.614;8.814;2023-07-20T10:46:15;38.50;35.70
66271;DHT22;53063;39.614;8.814;2023-07-20T10:49:02;38.70;34.70
66271;DHT22;53063;39.614;8.814;2023-07-20T10:51:28;38.50;33.20
66271;DHT22;53063;39.614;8.814;2023-07-20T10:53:58;38.60;35.90
66271;DHT22;53063;39.614;8.814;2023-07-20T10:56:28;38.50;37.00
66271;DHT22;53063;39.614;8.814;2023-07-20T10:58:58;38.70;37.40
66271;DHT22;53063;39.614;8.814;2023-07-20T11:01:29;39.00;36.90
66271;DHT22;53063;39.614;8.814;2023-07-20T11:04:00;38.80;39.40
66271;DHT22;53063;39.614;8.814;2023-07-20T11:09:33;38.50;39.40
66271;DHT22;53063;39.614;8.814;2023-07-20T11:12:13;38.60;38.90
66271;DHT22;53063;39.614;8.814;2023-07-20T11:14:41;38.70;37.30
66271;DHT22;53063;39.614;8.814;2023-07-20T11:17:14;39.00;38.50
66271;DHT22;53063;39.614;8.814;2023-07-20T11:19:41;39.20;38.20
66271;DHT22;53063;39.614;8.814;2023-07-20T11:22:07;39.20;37.30
66271;DHT22;53063;39.614;8.814;2023-07-20T11:24:37;39.10;37.70
66271;DHT22;53063;39.614;8.814;2023-07-20T11:27:03;39.20;38.70
66271;DHT22;53063;39.614;8.814;2023-07-20T11:29:29;39.40;38.70
66271;DHT22;53063;39.614;8.814;2023-07-20T11:31:56;39.30;38.90
66271;DHT22;53063;39.614;8.814;2023-07-20T11:34:24;39.30;38.20
66271;DHT22;53063;39.614;8.814;2023-07-20T11:36:51;39.80;37.50
66271;DHT22;53063;39.614;8.814;2023-07-20T11:39:18;39.70;37.40
66271;DHT22;53063;39.614;8.814;2023-07-20T11:42:11;39.90;34.70
66271;DHT22;53063;39.614;8.814;2023-07-20T11:44:38;39.70;38.90
66271;DHT22;53063;39.614;8.814;2023-07-20T11:47:13;39.70;35.10
66271;DHT22;53063;39.614;8.814;2023-07-20T11:49:44;40.00;36.30
66271;DHT22;53063;39.614;8.814;2023-07-20T11:52:14;40.00;37.30
66271;DHT22;53063;39.614;8.814;2023-07-20T11:54:41;40.00;38.10
66271;DHT22;53063;39.614;8.814;2023-07-20T11:57:16;39.60;39.30
66271;DHT22;53063;39.614;8.814;2023-07-20T11:59:56;39.60;38.70
66271;DHT22;53063;39.614;8.814;2023-07-20T12:02:27;39.60;38.70
66271;DHT22;53063;39.614;8.814;2023-07-20T12:04:57;39.80;38.40
66271;DHT22;53063;39.614;8.814;2023-07-20T12:07:25;39.60;36.90
66271;DHT22;53063;39.614;8.814;2023-07-20T12:10:09;39.70;37.70
66271;DHT22;53063;39.614;8.814;2023-07-20T12:12:43;40.00;37.90
66271;DHT22;53063;39.614;8.814;2023-07-20T12:15:25;40.10;37.00
66271;DHT22;53063;39.614;8.814;2023-07-20T12:17:57;39.90;39.40
66271;DHT22;53063;39.614;8.814;2023-07-20T12:20:31;39.40;40.60
66271;DHT22;53063;39.614;8.814;2023-07-20T12:25:38;38.90;40.20
66271;DHT22;53063;39.614;8.814;2023-07-20T12:28:09;38.60;41.90
66271;DHT22;53063;39.614;8.814;2023-07-20T12:30:35;39.00;39.50
66271;DHT22;53063;39.614;8.814;2023-07-20T12:33:02;39.40;39.10
66271;DHT22;53063;39.614;8.814;2023-07-20T12:35:30;39.50;39.60
66271;DHT22;53063;39.614;8.814;2023-07-20T12:37:56;39.00;41.10
66271;DHT22;53063;39.614;8.814;2023-07-20T12:40:22;39.00;41.30
66271;DHT22;53063;39.614;8.814;2023-07-20T12:42:48;39.00;40.20
66271;DHT22;53063;39.614;8.814;2023-07-20T12:45:14;38.50;42.00
66271;DHT22;53063;39.614;8.814;2023-07-20T12:47:40;38.70;43.30
66271;DHT22;53063;39.614;8.814;2023-07-20T12:50:07;38.70;44.20
66271;DHT22;53063;39.614;8.814;2023-07-20T12:52:36;38.90;43.80
66271;DHT22;53063;39.614;8.814;2023-07-20T12:55:05;38.80;42.60
66271;DHT22;53063;39.614;8.814;2023-07-20T12:57:31;38.90;42.40
66271;DHT22;53063;39.614;8.814;2023-07-20T12:59:57;38.80;43.30
66271;DHT22;53063;39.614;8.814;2023-07-20T13:02:23;39.10;41.20
66271;DHT22;53063;39.614;8.814;2023-07-20T13:04:49;39.00;38.80
66271;DHT22;53063;39.614;8.814;2023-07-20T13:07:15;38.80;40.50
66271;DHT22;53063;39.614;8.814;2023-07-20T13:09:41;38.40;42.00
66271;DHT22;53063;39.614;8.814;2023-07-20T13:12:07;38.80;38.90
66271;DHT22;53063;39.614;8.814;2023-07-20T13:14:33;38.70;39.80
66271;DHT22;53063;39.614;8.814;2023-07-20T13:16:59;38.70;38.00
66271;DHT22;53063;39.614;8.814;2023-07-20T13:19:25;38.70;40.10
66271;DHT22;53063;39.614;8.814;2023-07-20T13:21:52;38.80;38.80
66271;DHT22;53063;39.614;8.814;2023-07-20T13:24:18;38.80;38.20
66271;DHT22;53063;39.614;8.814;2023-07-20T13:26:44;38.60;38.00
66271;DHT22;53063;39.614;8.814;2023-07-20T13:29:09;38.40;38.00
66271;DHT22;53063;39.614;8.814;2023-07-20T13:31:35;38.40;37.40
66271;DHT22;53063;39.614;8.814;2023-07-20T13:34:01;38.50;35.70
66271;DHT22;53063;39.614;8.814;2023-07-20T13:36:27;38.30;36.50
66271;DHT22;53063;39.614;8.814;2023-07-20T13:38:53;38.50;36.20
66271;DHT22;53063;39.614;8.814;2023-07-20T13:41:19;38.30;36.10
66271;DHT22;53063;39.614;8.814;2023-07-20T13:43:45;38.30;37.80
66271;DHT22;53063;39.614;8.814;2023-07-20T13:46:11;38.10;38.20
66271;DHT22;53063;39.614;8.814;2023-07-20T13:48:37;37.90;39.20
66271;DHT22;53063;39.614;8.814;2023-07-20T13:51:03;37.90;39.60
66271;DHT22;53063;39.614;8.814;2023-07-20T13:53:30;38.00;40.20
66271;DHT22;53063;39.614;8.814;2023-07-20T13:55:56;37.80;40.20
66271;DHT22;53063;39.614;8.814;2023-07-20T13:58:22;37.70;39.40
66271;DHT22;53063;39.614;8.814;2023-07-20T14:00:48;37.80;39.50
66271;DHT22;53063;39.614;8.814;2023-07-20T14:03:14;37.80;39.80
66271;DHT22;53063;39.614;8.814;2023-07-20T14:05:40;37.90;38.40
66271;DHT22;53063;39.614;8.814;2023-07-20T14:08:06;37.60;37.60
66271;DHT22;53063;39.614;8.814;2023-07-20T14:10:32;37.50;37.90
66271;DHT22;53063;39.614;8.814;2023-07-20T14:12:58;37.40;37.60
66271;DHT22;53063;39.614;8.814;2023-07-20T14:15:24;37.30;36.70
66271;DHT22;53063;39.614;8.814;2023-07-20T14:17:50;37.30;37.90
66271;DHT22;53063;39.614;8.814;2023-07-20T14:20:16;37.10;37.70
66271;DHT22;53063;39.614;8.814;2023-07-20T14:22:42;36.90;37.90
66271;DHT22;53063;39.614;8.814;2023-07-20T14:25:08;37.00;37.90
66271;DHT22;53063;39.614;8.814;2023-07-20T14:27:34;36.80;39.50
66271;DHT22;53063;39.614;8.814;2023-07-20T14:30:00;36.50;41.10
66271;DHT22;53063;39.614;8.814;2023-07-20T14:32:26;36.50;41.50
66271;DHT22;53063;39.614;8.814;2023-07-20T14:34:52;36.50;42.10
66271;DHT22;53063;39.614;8.814;2023-07-20T14:37:18;36.30;43.00
66271;DHT22;53063;39.614;8.814;2023-07-20T14:39:44;36.20;43.20
66271;DHT22;53063;39.614;8.814;2023-07-20T14:42:10;36.00;43.10
66271;DHT22;53063;39.614;8.814;2023-07-20T14:44:36;35.90;43.30
66271;DHT22;53063;39.614;8.814;2023-07-20T14:47:02;35.60;42.80
66271;DHT22;53063;39.614;8.814;2023-07-20T14:49:28;35.40;44.10
66271;DHT22;53063;39.614;8.814;2023-07-20T14:51:54;35.30;43.70
66271;DHT22;53063;39.614;8.814;2023-07-20T14:54:21;35.50;45.50
66271;DHT22;53063;39.614;8.814;2023-07-20T14:56:51;35.40;46.40
66271;DHT22;53063;39.614;8.814;2023-07-20T14:59:20;35.30;46.40
66271;DHT22;53063;39.614;8.814;2023-07-20T15:01:46;35.10;47.70
66271;DHT22;53063;39.614;8.814;2023-07-20T15:04:13;34.90;49.20
66271;DHT22;53063;39.614;8.814;2023-07-20T15:06:40;34.70;49.70
66271;DHT22;53063;39.614;8.814;2023-07-20T15:09:06;34.40;49.70
66271;DHT22;53063;39.614;8.814;2023-07-20T15:11:34;34.60;49.90
66271;DHT22;53063;39.614;8.814;2023-07-20T15:14:00;34.40;49.10
66271;DHT22;53063;39.614;8.814;2023-07-20T15:16:26;34.50;48.00
66271;DHT22;53063;39.614;8.814;2023-07-20T15:18:52;34.30;48.20
66271;DHT22;53063;39.614;8.814;2023-07-20T15:21:18;34.20;49.80
66271;DHT22;53063;39.614;8.814;2023-07-20T15:23:44;34.10;50.50
66271;DHT22;53063;39.614;8.814;2023-07-20T15:26:11;34.10;50.70
66271;DHT22;53063;39.614;8.814;2023-07-20T15:28:37;34.00;50.80
66271;DHT22;53063;39.614;8.814;2023-07-20T15:31:04;34.00;52.30
66271;DHT22;53063;39.614;8.814;2023-07-20T15:33:31;34.00;50.80
66271;DHT22;53063;39.614;8.814;2023-07-20T15:35:57;33.80;51.70
66271;DHT22;53063;39.614;8.814;2023-07-20T15:38:23;33.70;51.50
66271;DHT22;53063;39.614;8.814;2023-07-20T15:40:49;33.90;52.10
66271;DHT22;53063;39.614;8.814;2023-07-20T15:43:16;33.70;54.20